Time;durP1;ratioP1;P1;durP2;ratioP2;P2;SDS_P1;SDS_P2;PMS_P1;PMS_P2;Temp;Humidity;BMP_temperature;BMP_pressure;BME280_temperature;BME280_humidity;BME280_pressure;Samples;Min_cycle;Max_cycle;Signal;HPM_P1;HPM_P2
2024/02/02 00:04:29;;;;;;;0.20;0.00;;;3.60;90.40;;;;;;20680982;28;20905;-45
2024/02/02 00:14:31;;;;;;;0.00;0.00;;;3.20;90.80;;;;;;20682382;28;20771;-44
2024/02/02 00:24:32;;;;;;;0.00;0.00;;;3.10;90.60;;;;;;20598837;28;20072;-45
2024/02/02 00:34:34;;;;;;;0.00;0.00;;;3.60;89.30;;;;;;20596985;28;20045;-43
2024/02/02 00:44:36;;;;;;;0.75;0.00;;;3.80;88.10;;;;;;20595168;28;20065;-45
2024/02/02 00:54:38;;;;;;;0.17;0.00;;;3.90;87.20;;;;;;20599670;28;20041;-45
2024/02/02 01:04:39;;;;;;;0.20;0.00;;;4.00;86.90;;;;;;20595349;28;20045;-45
2024/02/02 01:14:42;;;;;;;0.95;0.00;;;3.90;86.90;;;;;;20594149;28;20509;-47
2024/02/02 01:24:47;;;;;;;0.10;0.00;;;3.80;87.10;;;;;;20665235;28;20114;-45
2024/02/02 01:34:49;;;;;;;0.35;0.00;;;3.70;88.20;;;;;;20677274;28;20138;-47
2024/02/02 01:44:51;;;;;;;0.88;0.10;;;3.70;87.40;;;;;;20659733;28;21261;-44
2024/02/02 01:54:53;;;;;;;0.00;0.00;;;4.00;86.80;;;;;;20672971;28;21163;-44
2024/02/02 02:05:03;;;;;;;0.47;0.10;;;3.90;87.30;;;;;;20674514;28;20424;-44
2024/02/02 02:15:06;;;;;;;0.30;0.10;;;3.70;87.20;;;;;;20672963;28;20041;-43
2024/02/02 02:25:08;;;;;;;0.00;0.00;;;3.60;87.40;;;;;;20678396;28;20866;-43
2024/02/02 02:35:11;;;;;;;0.00;0.00;;;3.40;88.50;;;;;;20687048;28;20037;-45
2024/02/02 02:45:17;;;;;;;0.43;0.00;;;3.20;89.20;;;;;;20689389;28;20122;-44
2024/02/02 02:55:22;;;;;;;0.20;0.00;;;3.10;89.70;;;;;;20689033;28;20118;-44
2024/02/02 03:05:26;;;;;;;0.00;0.00;;;3.20;89.20;;;;;;20686776;28;20094;-44
2024/02/02 03:15:31;;;;;;;0.73;0.00;;;3.20;88.80;;;;;;20688455;28;20995;-44
2024/02/02 03:25:33;;;;;;;0.00;0.00;;;3.20;88.90;;;;;;20684032;28;20084;-43
2024/02/02 03:35:35;;;;;;;0.10;0.00;;;3.20;89.20;;;;;;20682055;28;20037;-44
2024/02/02 03:45:37;;;;;;;0.10;0.00;;;3.00;90.00;;;;;;20682631;28;21028;-45
2024/02/02 03:55:39;;;;;;;0.10;0.00;;;2.70;89.90;;;;;;20683745;28;20045;-48
2024/02/02 04:05:41;;;;;;;0.13;0.00;;;2.90;89.90;;;;;;20680159;28;20152;-44
2024/02/02 04:15:44;;;;;;;0.20;0.00;;;2.80;90.10;;;;;;20680327;28;20164;-44
2024/02/02 04:25:45;;;;;;;0.00;0.00;;;2.80;89.90;;;;;;20660923;28;20081;-45
2024/02/02 04:35:47;;;;;;;0.00;0.00;;;2.80;90.00;;;;;;20678557;28;20522;-44
2024/02/02 04:45:49;;;;;;;1.08;0.00;;;2.70;90.10;;;;;;20676873;28;20077;-43
2024/02/02 04:55:51;;;;;;;0.00;0.00;;;3.00;89.50;;;;;;20673423;28;20037;-44
2024/02/02 05:05:52;;;;;;;0.00;0.00;;;3.20;88.70;;;;;;20676073;28;20037;-47
2024/02/02 05:15:55;;;;;;;0.00;0.00;;;3.40;87.10;;;;;;20658241;28;20072;-44
2024/02/02 05:25:57;;;;;;;0.10;0.00;;;3.80;85.90;;;;;;20675971;28;20133;-45
2024/02/02 05:35:59;;;;;;;0.00;0.00;;;4.00;84.40;;;;;;20673564;28;21635;-44
2024/02/02 05:46:00;;;;;;;0.00;0.00;;;4.00;84.10;;;;;;20676509;28;20037;-45
2024/02/02 05:56:02;;;;;;;0.00;0.00;;;3.60;85.80;;;;;;20675345;28;20091;-44
2024/02/02 06:06:04;;;;;;;0.00;0.00;;;3.50;85.70;;;;;;20672483;28;20032;-45
2024/02/02 06:16:06;;;;;;;0.00;0.00;;;3.50;85.70;;;;;;20685926;28;20122;-44
2024/02/02 06:26:08;;;;;;;0.00;0.00;;;3.60;84.70;;;;;;20684803;28;20076;-44
2024/02/02 06:36:10;;;;;;;0.17;0.00;;;3.50;84.70;;;;;;20664814;28;20106;-45
2024/02/02 06:46:12;;;;;;;0.00;0.00;;;3.40;85.00;;;;;;20686774;28;20130;-45
2024/02/02 06:56:41;;;;;;;0.00;0.00;;;3.40;85.20;;;;;;20684231;28;20104;-43
2024/02/02 07:06:45;;;;;;;0.00;0.00;;;3.20;85.70;;;;;;20679249;28;20065;-44
2024/02/02 07:16:50;;;;;;;0.00;0.00;;;3.40;85.10;;;;;;20679179;28;21238;-44
2024/02/02 07:26:52;;;;;;;0.08;0.00;;;3.60;85.30;;;;;;20681163;28;20076;-44
2024/02/02 07:36:56;;;;;;;0.00;0.00;;;3.60;85.00;;;;;;20680976;28;20118;-44
2024/02/02 07:46:58;;;;;;;0.00;0.00;;;4.10;84.40;;;;;;20678714;28;20198;-44
2024/02/02 07:57:01;;;;;;;0.00;0.00;;;4.40;84.00;;;;;;20675378;28;21467;-45
2024/02/02 08:07:03;;;;;;;0.17;0.08;;;5.20;83.20;;;;;;20673476;28;20597;-47
2024/02/02 08:17:07;;;;;;;0.10;0.05;;;6.00;80.00;;;;;;20674981;28;21161;-45
2024/02/02 08:27:09;;;;;;;0.10;0.00;;;6.70;78.80;;;;;;20674679;28;20185;-45
2024/02/02 08:37:11;;;;;;;0.40;0.00;;;7.10;77.30;;;;;;20676053;28;20080;-47
2024/02/02 08:47:13;;;;;;;0.40;0.28;;;7.60;76.00;;;;;;20654137;28;20472;-46
2024/02/02 08:57:35;;;;;;;0.10;0.00;;;7.90;74.60;;;;;;20672630;28;20764;-45
2024/02/02 09:07:38;;;;;;;0.38;0.00;;;8.30;73.90;;;;;;20669428;28;20106;-44
2024/02/02 09:17:42;;;;;;;0.10;0.00;;;8.40;73.00;;;;;;20671338;28;20088;-47
2024/02/02 09:27:46;;;;;;;0.00;0.00;;;8.80;73.70;;;;;;20666294;28;20675;-45
2024/02/02 09:37:50;;;;;;;0.00;0.00;;;9.30;71.90;;;;;;20671286;28;20072;-48
2024/02/02 09:48:05;;;;;;;0.05;0.00;;;10.20;73.50;;;;;;20651831;28;20072;-45
2024/02/02 09:58:18;;;;;;;0.47;0.10;;;11.00;74.00;;;;;;20651714;28;20073;-45
2024/02/02 10:08:42;;;;;;;0.20;0.10;;;11.50;74.10;;;;;;20668795;28;20130;-44
2024/02/02 10:19:05;;;;;;;0.57;0.20;;;11.90;73.00;;;;;;20648171;28;20162;-45
2024/02/02 10:29:10;;;;;;;0.35;0.13;;;11.90;72.50;;;;;;20667372;28;20150;-47
2024/02/02 10:40:02;;;;;;;0.20;0.00;;;11.90;71.10;;;;;;20669303;28;20982;-47
2024/02/02 10:50:16;;;;;;;0.00;0.00;;;12.50;68.50;;;;;;20677015;28;20123;-48
2024/02/02 11:00:21;;;;;;;0.65;0.20;;;12.40;67.20;;;;;;20680994;28;20045;-48
2024/02/02 11:10:33;;;;;;;0.30;0.17;;;12.70;69.50;;;;;;20680198;28;20576;-47
2024/02/02 11:21:13;;;;;;;0.65;0.10;;;12.90;68.20;;;;;;20681648;28;20495;-45
2024/02/02 11:31:29;;;;;;;0.10;0.00;;;13.10;66.40;;;;;;20679587;28;20098;-49
2024/02/02 11:41:35;;;;;;;0.13;0.00;;;13.10;66.00;;;;;;20682770;28;21478;-49
2024/02/02 11:51:46;;;;;;;0.20;0.10;;;13.60;67.80;;;;;;20675271;28;20578;-46
2024/02/02 12:02:19;;;;;;;0.10;0.08;;;13.70;66.90;;;;;;20678744;28;20033;-46
2024/02/02 12:12:33;;;;;;;1.00;0.10;;;13.70;65.70;;;;;;20677139;28;20157;-47
2024/02/02 12:22:35;;;;;;;0.22;0.10;;;13.80;67.30;;;;;;20677199;28;20092;-46
2024/02/02 12:32:38;;;;;;;1.08;0.20;;;13.80;64.10;;;;;;20675387;28;20080;-46
2024/02/02 12:42:40;;;;;;;1.48;0.20;;;13.70;67.60;;;;;;20671597;28;20164;-48
2024/02/02 12:52:45;;;;;;;0.75;0.30;;;13.70;67.60;;;;;;20672913;28;20130;-47
2024/02/02 13:02:49;;;;;;;0.22;0.10;;;13.40;66.60;;;;;;20672656;28;20208;-45
2024/02/02 13:12:52;;;;;;;0.20;0.10;;;13.50;68.00;;;;;;20670495;28;20084;-47
2024/02/02 13:23:00;;;;;;;1.50;0.60;;;13.40;65.80;;;;;;20669094;28;20183;-48
2024/02/02 13:33:07;;;;;;;2.72;0.70;;;12.90;69.00;;;;;;20670805;28;20072;-45
2024/02/02 13:43:15;;;;;;;1.42;0.60;;;12.30;71.20;;;;;;20671236;28;20696;-45
2024/02/02 13:53:22;;;;;;;2.72;0.65;;;11.60;71.60;;;;;;20671425;28;20064;-45
2024/02/02 14:03:25;;;;;;;1.05;0.68;;;10.90;73.80;;;;;;20669109;28;20131;-45
2024/02/02 14:13:27;;;;;;;3.45;0.88;;;10.30;73.60;;;;;;20669708;28;20118;-44
2024/02/02 14:23:31;;;;;;;3.28;1.33;;;9.90;75.60;;;;;;20677673;28;20080;-46
2024/02/02 14:33:33;;;;;;;2.67;1.40;;;9.50;77.20;;;;;;20686461;28;20036;-44
2024/02/02 14:43:35;;;;;;;2.83;1.25;;;9.00;77.30;;;;;;20685153;28;21682;-44
2024/02/02 14:53:38;;;;;;;2.35;1.20;;;8.50;76.40;;;;;;20684995;28;20104;-43
2024/02/02 15:03:41;;;;;;;1.60;1.00;;;8.30;77.30;;;;;;20679850;28;20502;-45
2024/02/02 15:13:43;;;;;;;2.50;1.50;;;8.00;78.50;;;;;;20682109;28;20158;-44
2024/02/02 15:23:44;;;;;;;2.75;1.20;;;8.00;78.40;;;;;;20680585;28;20081;-43
2024/02/02 15:33:46;;;;;;;1.05;0.57;;;7.70;81.10;;;;;;20676733;28;20221;-45
2024/02/02 15:43:48;;;;;;;2.13;0.70;;;7.00;81.70;;;;;;20678989;28;20072;-43
2024/02/02 15:53:50;;;;;;;2.92;0.28;;;6.00;85.00;;;;;;20678468;28;20069;-43
2024/02/02 16:03:52;;;;;;;0.38;0.10;;;5.50;85.70;;;;;;20677931;28;20139;-44
2024/02/02 16:13:54;;;;;;;0.57;0.30;;;5.10;84.60;;;;;;20675720;28;20150;-46
2024/02/02 16:23:56;;;;;;;5.43;3.90;;;4.80;84.90;;;;;;20676163;28;20096;-43
2024/02/02 16:33:58;;;;;;;0.55;0.20;;;4.50;85.10;;;;;;20678919;28;20064;-43
2024/02/02 16:44:00;;;;;;;0.10;0.00;;;4.10;86.10;;;;;;20678334;28;20519;-44
2024/02/02 16:54:03;;;;;;;0.17;0.00;;;3.90;85.30;;;;;;20647842;28;20123;-43
2024/02/02 17:04:05;;;;;;;5.75;3.38;;;3.70;85.30;;;;;;20674421;28;20720;-43
2024/02/02 17:14:08;;;;;;;0.17;0.10;;;3.80;85.80;;;;;;20673751;28;20059;-43
2024/02/02 17:24:10;;;;;;;5.07;2.78;;;3.70;85.70;;;;;;20675726;28;20103;-43
2024/02/02 17:34:13;;;;;;;1.42;0.20;;;4.20;84.00;;;;;;20674928;28;20069;-48
2024/02/02 17:44:17;;;;;;;0.60;0.40;;;5.30;80.60;;;;;;20674007;28;20072;-46
2024/02/02 17:54:20;;;;;;;1.60;0.50;;;6.10;79.10;;;;;;20677366;28;20072;-44
2024/02/02 18:04:22;;;;;;;0.30;0.10;;;6.00;79.30;;;;;;20689003;28;20107;-45
2024/02/02 18:14:26;;;;;;;0.13;0.00;;;5.70;81.00;;;;;;20690236;28;20126;-45
2024/02/02 18:24:28;;;;;;;0.05;0.00;;;6.10;80.80;;;;;;20690076;28;20078;-44
2024/02/02 18:34:30;;;;;;;0.38;0.13;;;6.40;80.70;;;;;;20686957;28;20280;-48
2024/02/02 18:44:32;;;;;;;0.10;0.00;;;6.50;81.40;;;;;;20685612;28;20069;-45
2024/02/02 18:54:36;;;;;;;0.17;0.00;;;6.40;83.50;;;;;;20687299;28;20119;-44
2024/02/02 19:04:41;;;;;;;0.35;0.08;;;6.60;85.00;;;;;;20682011;28;20110;-43
2024/02/02 19:14:43;;;;;;;0.45;0.00;;;6.70;84.70;;;;;;20683774;28;20045;-44
2024/02/02 19:24:46;;;;;;;0.10;0.05;;;6.50;84.70;;;;;;20682305;28;20138;-44
2024/02/02 19:34:47;;;;;;;0.25;0.00;;;6.60;85.50;;;;;;20682368;28;20044;-46
2024/02/02 19:44:49;;;;;;;0.05;0.00;;;6.60;85.30;;;;;;20681139;28;20118;-43
2024/02/02 19:54:54;;;;;;;0.38;0.10;;;7.20;85.30;;;;;;20681334;28;20078;-44
2024/02/02 20:04:56;;;;;;;0.00;0.00;;;7.20;87.10;;;;;;20679296;28;20196;-45
2024/02/02 20:14:58;;;;;;;0.10;0.00;;;7.70;87.30;;;;;;20677382;28;21129;-45
2024/02/02 20:25:00;;;;;;;0.03;0.00;;;7.90;87.80;;;;;;20678156;28;20080;-43
2024/02/02 20:35:02;;;;;;;0.17;0.00;;;7.80;88.40;;;;;;20677842;28;20064;-45
2024/02/02 20:45:04;;;;;;;2.45;0.00;;;7.70;89.50;;;;;;20676630;28;20068;-45
2024/02/02 20:55:07;;;;;;;0.00;0.00;;;7.80;89.90;;;;;;20678477;28;20076;-44
2024/02/02 21:05:12;;;;;;;0.00;0.00;;;7.90;90.20;;;;;;20677656;28;20147;-43
2024/02/02 21:15:16;;;;;;;0.10;0.00;;;8.00;90.30;;;;;;20675407;28;20068;-43
2024/02/02 21:25:18;;;;;;;3.10;0.00;;;7.80;90.60;;;;;;20673327;28;21025;-44
2024/02/02 21:35:20;;;;;;;0.15;0.00;;;7.80;90.60;;;;;;20674694;28;20793;-47
2024/02/02 21:45:23;;;;;;;0.22;0.00;;;7.80;90.40;;;;;;20674298;28;20119;-45
2024/02/02 21:55:25;;;;;;;0.10;0.00;;;8.20;90.10;;;;;;20673760;28;20091;-45
2024/02/02 22:05:27;;;;;;;0.03;0.00;;;8.20;90.00;;;;;;20674808;28;21156;-43
2024/02/02 22:15:29;;;;;;;0.00;0.00;;;8.40;89.60;;;;;;20673355;28;20079;-44
2024/02/02 22:25:31;;;;;;;0.00;0.00;;;8.30;89.10;;;;;;20670401;28;20146;-45
2024/02/02 22:35:35;;;;;;;0.10;0.00;;;8.30;88.90;;;;;;20672292;28;20068;-44
2024/02/02 22:45:37;;;;;;;0.10;0.00;;;8.60;87.90;;;;;;20682573;28;20069;-45
2024/02/02 22:55:38;;;;;;;0.13;0.00;;;8.30;89.00;;;;;;20686372;28;20130;-46
2024/02/02 23:05:45;;;;;;;0.00;0.00;;;8.20;88.70;;;;;;20684794;28;20502;-45
2024/02/02 23:15:47;;;;;;;0.15;0.03;;;8.10;88.70;;;;;;20684594;28;20076;-45
2024/02/02 23:25:49;;;;;;;0.10;0.00;;;8.10;88.30;;;;;;20686319;28;20768;-44
2024/02/02 23:35:51;;;;;;;0.00;0.00;;;8.10;88.30;;;;;;20684589;28;20068;-45
2024/02/02 23:45:53;;;;;;;0.20;0.00;;;8.10;88.80;;;;;;20683057;28;20069;-43
2024/02/02 23:55:55;;;;;;;0.52;0.00;;;8.10;88.90;;;;;;20683273;28;20073;-43
